Gibsonia, Florida
Current Conditions -  °F | °C
As of 2:58 PM on Saturday 25 Oct 2014 (Local Time) from KLAL Reporting Station
Clear Clear  
Wind Chill: 79°   Ceiling: Unl
Heat Index: 79°   Visibility: 20mi
Dew Point: 54°   Wind: 0mph
Humidity: 42%   Direction: NA
Pressure: 29.95"   Gusts: NA
Location:  28.088°N, 81.941°W
Report Text: KLAL 251858Z 00000KT 20SM SKC 26/12 A2995
Loading
Personal Weather Stations






























Interactive Weather Map
Tropical Storm Tracking
New forecast layout! Learn more

10-Day Weather Forecast

Advertisements
Track Severe Weather on mobile